Great Cacapon, West Virginia
Current Conditions -  °F | °C
As of 9:53 AM on Thursday 30 Oct 2014 (Local Time) from KMRB Reporting Station
Few Clouds Few Clouds  
Wind Chill: 52°   Ceiling: Unl
Heat Index: 52°   Visibility: 10mi
Dew Point: 36°   Wind: 8mph
Humidity: 54%   Direction: 320°NW
Pressure: 30.09"   Gusts: NA
Location:  39.62°N, 78.29°W
Report Text: KMRB 301353Z 32007KT 10SM FEW065 11/02 A3009 RMK AO2 SLP190 T01110022
Loading
Personal Weather Stations






























Interactive Weather Map
Tropical Storm Tracking
New forecast layout! Learn more

10-Day Weather Forecast

Advertisements
Track Severe Weather on mobile